Ahsahka, Idaho
Current Conditions -  °F | °C
As of 1:56 PM on Sunday 23 Nov 2014 (Local Time) from KLWS Reporting Station
Overcast Overcast  
Wind Chill: 50°   Ceiling: 7000
Heat Index: 50°   Visibility: 10mi
Dew Point: 33°   Wind: 15mph
Humidity: 52%   Direction: 200°SSW
Pressure: 30.05"   Gusts: NA
Location:  46.51°N, 116.35°W
Report Text: KLWS 232156Z 20013KT 10SM OVC070 10/01 A3005 RMK AO2 SLP181 T01000006
Loading
Personal Weather Stations






























Interactive Weather Map New forecast layout! Learn more

10-Day Weather Forecast

Advertisements
Track Severe Weather on mobile